Terminal Aerodrome Forecast
Issued by NWS Denver/Boulder, CO

Home | Current Version | Previous Version | Text Only | Print | Product List | Glossary On
Versions: 1 2 3 4 5 6 7 8 9 10 11 12 13 14 15 16 17 18 19 20 21 22 23 24 25 26 27 28 29 30 31 32 33 34 35 36 37 38 39 40 41 42 43 44 45 46 47 48 49 50
000
FTUS45 KBOU 061727
TAFDEN
TAF
KDEN 061727Z 0618/0724 02010KT P6SM VCSH BKN010 OVC030
      TEMPO 0618/0620 4SM -RA BR SCT010 BKN025
     FM062000 04010KT P6SM VCTS SCT025CB BKN050
      TEMPO 0621/0701 -SHRA BKN020
     FM070200 10009KT P6SM VCSH SCT040 BKN070
     FM071000 14008KT P6SM SCT025 BKN040
     FM071800 15008KT P6SM VCSH SCT035 OVC050
      TEMPO 0718/0721 -SHRA BKN035
     FM072100 18010KT P6SM -SHRA SCT025 BKN050
      TEMPO 0721/0724 4SM -SHRA BKN025=

USA.gov is the U.S. government's official web portal to all federal, state and local government web resources and services.